createdAt,value
2018-10-09T00:01:01.394Z,9.29
2018-10-09T00:03:29.957Z,8.97
2018-10-09T00:05:58.536Z,9.04
2018-10-09T00:08:27.070Z,8.96
2018-10-09T00:10:55.789Z,9.10
2018-10-09T00:13:24.328Z,9.07
2018-10-09T00:15:52.955Z,9.05
2018-10-09T00:18:21.604Z,9.06
2018-10-09T00:20:50.260Z,8.92
2018-10-09T00:23:18.793Z,8.80
2018-10-09T00:25:47.579Z,8.94
2018-10-09T00:28:16.153Z,8.84
2018-10-09T00:30:44.724Z,8.76
2018-10-09T00:33:13.263Z,8.78
2018-10-09T00:35:41.793Z,8.71
2018-10-09T00:38:10.482Z,8.72
2018-10-09T00:40:39.144Z,8.72
2018-10-09T00:43:07.724Z,8.65
2018-10-09T00:45:36.309Z,8.59
2018-10-09T00:48:04.931Z,8.56
2018-10-09T00:50:33.516Z,8.76
2018-10-09T00:53:02.104Z,8.79
2018-10-09T00:55:30.825Z,8.60
2018-10-09T00:57:59.373Z,8.48
2018-10-09T01:00:27.957Z,8.55
2018-10-09T01:02:56.628Z,8.49
2018-10-09T01:05:25.168Z,8.51
2018-10-09T01:07:53.941Z,8.52
2018-10-09T01:10:22.927Z,8.55
2018-10-09T01:12:51.569Z,8.52
2018-10-09T01:15:20.093Z,8.50
2018-10-09T01:17:48.908Z,8.36
2018-10-09T01:20:21.612Z,8.53
2018-10-09T01:22:50.216Z,8.43
2018-10-09T01:25:18.788Z,8.35
2018-10-09T01:27:47.384Z,8.32
2018-10-09T01:30:16.013Z,8.26
2018-10-09T01:32:44.877Z,8.28
2018-10-09T01:35:13.421Z,8.27
2018-10-09T01:37:42.068Z,8.18
2018-10-09T01:40:10.673Z,8.14
2018-10-09T01:42:39.224Z,8.30
2018-10-09T01:45:07.896Z,8.28
2018-10-09T01:47:36.507Z,8.46
2018-10-09T01:50:05.250Z,8.39
2018-10-09T01:52:33.973Z,8.43
2018-10-09T01:55:02.520Z,8.40
2018-10-09T01:57:31.057Z,8.37
2018-10-09T01:59:59.681Z,8.30
2018-10-09T02:02:28.241Z,8.31
2018-10-09T02:04:56.767Z,8.10
2018-10-09T02:07:25.421Z,8.08
2018-10-09T02:09:54.104Z,8.08
2018-10-09T02:12:22.696Z,8.10
2018-10-09T02:14:51.336Z,7.94
2018-10-09T02:17:20.214Z,8.07
2018-10-09T02:19:48.768Z,7.92
2018-10-09T02:22:17.419Z,7.89
2018-10-09T02:24:45.953Z,7.89
2018-10-09T02:27:14.581Z,7.84
2018-10-09T02:29:43.320Z,7.76
2018-10-09T02:32:11.888Z,7.71
2018-10-09T02:34:40.469Z,7.59
2018-10-09T02:37:09.340Z,7.56
2018-10-09T02:39:37.912Z,7.53
2018-10-09T02:42:06.820Z,7.54
2018-10-09T02:44:35.539Z,7.60
2018-10-09T02:47:04.420Z,7.57
2018-10-09T02:49:33.036Z,7.57
2018-10-09T02:52:01.767Z,7.68
2018-10-09T02:54:30.299Z,7.73
2018-10-09T02:56:58.870Z,7.86
2018-10-09T02:59:27.726Z,7.74
2018-10-09T03:01:56.272Z,7.73
2018-10-09T03:04:24.957Z,7.61
2018-10-09T03:06:53.696Z,7.52
2018-10-09T03:09:22.276Z,7.46
2018-10-09T03:11:50.889Z,7.43
2018-10-09T03:14:19.604Z,7.56
2018-10-09T03:16:48.340Z,7.57
2018-10-09T03:19:16.968Z,7.64
2018-10-09T03:21:45.517Z,7.50
2018-10-09T03:24:14.129Z,7.53
2018-10-09T03:26:42.744Z,7.62
2018-10-09T03:29:11.480Z,7.56
2018-10-09T03:31:40.149Z,7.55
2018-10-09T03:34:08.841Z,7.48
2018-10-09T03:36:37.489Z,7.46
2018-10-09T03:39:07.960Z,7.45
2018-10-09T03:41:36.589Z,7.39
2018-10-09T03:44:05.183Z,7.44
2018-10-09T03:46:33.692Z,7.43
2018-10-09T03:49:02.292Z,7.39
2018-10-09T03:51:30.844Z,7.43
2018-10-09T03:53:59.503Z,7.58
2018-10-09T03:56:28.352Z,7.68
2018-10-09T03:58:56.904Z,7.87
2018-10-09T04:01:25.433Z,7.71
2018-10-09T04:03:54.388Z,7.85
2018-10-09T04:06:23.046Z,7.80
2018-10-09T04:08:51.720Z,7.73
2018-10-09T04:11:20.781Z,7.61
2018-10-09T04:13:49.336Z,7.57
2018-10-09T04:16:17.967Z,7.47
2018-10-09T04:18:46.888Z,7.41
2018-10-09T04:21:15.421Z,7.28
2018-10-09T04:23:43.966Z,7.41
2018-10-09T04:26:12.681Z,7.53
2018-10-09T04:28:41.312Z,7.42
2018-10-09T04:31:09.909Z,7.50
2018-10-09T04:33:38.514Z,7.58
2018-10-09T04:36:07.424Z,7.82
2018-10-09T04:38:36.127Z,7.79
2018-10-09T04:41:05.062Z,7.70
2018-10-09T04:43:33.589Z,7.67
2018-10-09T04:46:02.142Z,7.58
2018-10-09T04:48:30.692Z,7.68
2018-10-09T04:50:59.264Z,7.73
2018-10-09T04:53:27.884Z,7.66
2018-10-09T04:55:56.664Z,7.70
2018-10-09T04:58:25.516Z,7.74
2018-10-09T05:00:54.097Z,7.76
2018-10-09T05:03:23.137Z,7.66
2018-10-09T05:05:51.741Z,7.75
2018-10-09T05:08:20.309Z,7.79
2018-10-09T05:10:49.037Z,7.81
2018-10-09T05:13:17.729Z,7.72
2018-10-09T05:15:46.289Z,7.80
2018-10-09T05:18:14.884Z,7.85
2018-10-09T05:20:43.495Z,7.87
2018-10-09T05:23:12.127Z,7.85
2018-10-09T05:25:40.918Z,7.86
2018-10-09T05:28:10.004Z,7.93
2018-10-09T05:30:38.597Z,7.92
2018-10-09T05:33:07.532Z,7.89
2018-10-09T05:35:36.172Z,7.85
2018-10-09T05:38:04.729Z,7.99
2018-10-09T05:40:33.836Z,8.43
2018-10-09T05:43:02.433Z,8.32
2018-10-09T05:45:31.038Z,8.11
2018-10-09T05:47:59.648Z,8.07
2018-10-09T05:50:28.264Z,8.10
2018-10-09T05:52:56.885Z,8.06
2018-10-09T05:55:25.729Z,8.03
2018-10-09T05:57:54.294Z,8.28
2018-10-09T06:00:23.000Z,8.05
2018-10-09T06:02:51.629Z,7.92
2018-10-09T06:05:20.313Z,7.81
2018-10-09T06:07:48.893Z,7.84
2018-10-09T06:10:17.545Z,7.74
2018-10-09T06:12:46.073Z,7.81
2018-10-09T06:15:14.668Z,7.92
2018-10-09T06:17:43.277Z,7.84
2018-10-09T06:20:11.976Z,7.96
2018-10-09T06:22:40.559Z,7.83
2018-10-09T06:25:09.344Z,7.70
2018-10-09T06:27:37.999Z,7.84
2018-10-09T06:30:06.688Z,7.96
2018-10-09T06:32:35.261Z,7.86
2018-10-09T06:35:04.565Z,8.11
2018-10-09T06:37:33.228Z,8.24
2018-10-09T06:40:01.990Z,8.22
2018-10-09T06:42:30.603Z,8.29
2018-10-09T06:44:59.276Z,8.33
2018-10-09T06:47:27.832Z,8.39
2018-10-09T06:49:56.414Z,8.48
2018-10-09T06:52:24.964Z,8.63
2018-10-09T06:54:53.935Z,8.71
2018-10-09T06:57:22.532Z,8.69
2018-10-09T06:59:51.186Z,8.70
2018-10-09T07:02:19.884Z,8.79
2018-10-09T07:04:48.581Z,8.81
2018-10-09T07:07:17.141Z,8.88
2018-10-09T07:09:46.060Z,8.98
2018-10-09T07:12:14.625Z,9.06
2018-10-09T07:14:43.232Z,9.20
2018-10-09T07:17:12.156Z,9.36
2018-10-09T07:19:40.640Z,9.40
2018-10-09T07:22:09.300Z,9.51
2018-10-09T07:24:37.932Z,9.62
2018-10-09T07:27:06.717Z,9.78
2018-10-09T07:29:35.329Z,9.82
2018-10-09T07:32:04.152Z,9.90
2018-10-09T07:34:32.912Z,10.00
2018-10-09T07:37:01.520Z,10.05
2018-10-09T07:39:30.281Z,10.30
2018-10-09T07:41:58.909Z,10.05
2018-10-09T07:44:27.461Z,10.24
2018-10-09T07:46:56.184Z,10.26
2018-10-09T07:49:24.780Z,10.37
2018-10-09T07:51:53.381Z,10.53
2018-10-09T07:54:21.949Z,10.28
2018-10-09T07:56:50.602Z,10.36
2018-10-09T07:59:19.172Z,10.52
2018-10-09T08:01:47.856Z,10.64
2018-10-09T08:04:16.425Z,10.65
2018-10-09T08:06:45.097Z,10.58
2018-10-09T08:09:13.729Z,10.77
2018-10-09T08:11:42.285Z,10.84
2018-10-09T08:14:10.857Z,11.13
2018-10-09T08:16:39.425Z,11.08
2018-10-09T08:19:08.032Z,10.96
2018-10-09T08:21:36.573Z,10.94
2018-10-09T08:24:05.385Z,11.17
2018-10-09T08:26:34.096Z,11.35
2018-10-09T08:29:02.673Z,11.49
2018-10-09T08:31:31.584Z,11.51
2018-10-09T08:34:00.149Z,11.71
2018-10-09T08:36:28.745Z,11.83
2018-10-09T08:38:57.437Z,11.82
2018-10-09T08:41:26.212Z,11.96
2018-10-09T08:43:54.702Z,12.07
2018-10-09T08:46:23.419Z,12.40
2018-10-09T08:48:51.977Z,12.39
2018-10-09T08:51:20.629Z,12.43
2018-10-09T08:53:49.360Z,12.92
2018-10-09T08:56:18.034Z,12.82
2018-10-09T08:58:46.624Z,12.53
2018-10-09T09:01:15.437Z,12.65
2018-10-09T09:03:43.998Z,12.58
2018-10-09T09:06:12.585Z,12.55
2018-10-09T09:08:41.352Z,12.64
2018-10-09T09:11:09.996Z,12.61
2018-10-09T09:13:38.592Z,12.82
2018-10-09T09:16:07.669Z,12.90
2018-10-09T09:18:36.195Z,12.94
2018-10-09T09:21:05.091Z,13.15
2018-10-09T09:23:33.812Z,13.03
2018-10-09T09:26:02.433Z,13.19
2018-10-09T09:28:31.104Z,13.42
2018-10-09T09:30:59.765Z,13.33
2018-10-09T09:33:28.413Z,13.50
2018-10-09T09:35:56.996Z,13.53
2018-10-09T09:38:25.608Z,13.71
2018-10-09T09:40:54.465Z,13.99
2018-10-09T09:43:23.096Z,14.15
2018-10-09T09:45:52.008Z,14.57
2018-10-09T09:48:20.545Z,14.80
2018-10-09T09:50:49.153Z,14.70
2018-10-09T09:53:17.913Z,14.72
2018-10-09T09:55:46.505Z,14.45
2018-10-09T09:58:15.091Z,14.57
2018-10-09T10:00:49.149Z,15.06
2018-10-09T10:03:17.724Z,15.15
2018-10-09T10:05:46.400Z,15.67
2018-10-09T10:08:15.121Z,15.31
2018-10-09T10:10:43.897Z,15.55
2018-10-09T10:13:12.492Z,15.93
2018-10-09T10:15:41.171Z,15.90
2018-10-09T10:18:09.741Z,15.87
2018-10-09T10:20:38.373Z,15.90
2018-10-09T10:23:07.417Z,16.35
2018-10-09T10:25:35.973Z,16.60
2018-10-09T10:28:04.549Z,16.71
2018-10-09T10:30:33.177Z,16.70
2018-10-09T10:33:01.752Z,17.16
2018-10-09T10:35:30.404Z,17.54
2018-10-09T10:37:59.156Z,17.66
2018-10-09T10:40:27.761Z,17.51
2018-10-09T10:42:56.364Z,17.81
2018-10-09T10:45:25.470Z,18.11
2018-10-09T10:47:54.033Z,18.20
2018-10-09T10:50:22.680Z,17.94
2018-10-09T10:52:51.724Z,18.04
2018-10-09T10:55:20.261Z,18.19
2018-10-09T10:57:48.861Z,18.60
2018-10-09T11:00:17.539Z,18.44
2018-10-09T11:02:46.200Z,18.51
2018-10-09T11:05:14.732Z,18.76
2018-10-09T11:07:43.532Z,18.62
2018-10-09T11:10:12.056Z,18.83
2018-10-09T11:12:40.634Z,18.76
2018-10-09T11:15:09.521Z,18.84
2018-10-09T11:17:38.131Z,19.13
2018-10-09T11:20:06.896Z,19.37
2018-10-09T11:22:35.889Z,19.42
2018-10-09T11:25:04.557Z,19.21
2018-10-09T11:27:33.243Z,19.24
2018-10-09T11:30:02.186Z,19.46
2018-10-09T11:32:30.869Z,19.49
2018-10-09T11:34:59.432Z,19.85
2018-10-09T11:37:28.056Z,19.64
2018-10-09T11:39:56.676Z,19.57
2018-10-09T11:42:25.332Z,19.60
2018-10-09T11:44:53.953Z,19.63
2018-10-09T11:47:22.573Z,19.60
2018-10-09T11:49:51.124Z,19.91
2018-10-09T11:52:19.869Z,19.92
2018-10-09T11:54:48.436Z,20.14
2018-10-09T11:57:16.967Z,19.87
2018-10-09T11:59:45.753Z,19.74
2018-10-09T12:02:14.476Z,19.67
2018-10-09T12:04:43.008Z,19.66
2018-10-09T12:07:11.768Z,19.59
2018-10-09T12:09:40.408Z,19.56
2018-10-09T12:12:08.980Z,19.61
2018-10-09T12:14:37.643Z,19.58
2018-10-09T12:17:06.277Z,19.57
2018-10-09T12:19:34.880Z,19.57
2018-10-09T12:22:03.517Z,19.78
2018-10-09T12:24:32.188Z,19.67
2018-10-09T12:27:00.736Z,19.57
2018-10-09T12:29:29.480Z,19.49
2018-10-09T12:31:58.072Z,19.57
2018-10-09T12:34:26.596Z,19.63
2018-10-09T12:36:55.394Z,19.55
2018-10-09T12:39:23.953Z,19.65
2018-10-09T12:41:52.672Z,19.83
2018-10-09T12:44:21.497Z,19.87
2018-10-09T12:46:50.076Z,20.28
2018-10-09T12:49:18.667Z,20.33
2018-10-09T12:51:47.392Z,20.34
2018-10-09T12:54:15.925Z,20.25
2018-10-09T12:56:44.602Z,20.30
2018-10-09T12:59:13.272Z,20.07
2018-10-09T13:01:41.936Z,20.05
2018-10-09T13:04:10.484Z,20.30
2018-10-09T13:06:39.250Z,20.48
2018-10-09T13:09:10.316Z,20.34
2018-10-09T13:11:39.241Z,20.48
2018-10-09T13:14:07.879Z,20.36
2018-10-09T13:16:36.745Z,20.40
2018-10-09T13:19:05.629Z,20.39
2018-10-09T13:21:34.373Z,20.25
2018-10-09T13:24:02.812Z,20.43
2018-10-09T13:26:31.378Z,20.36
2018-10-09T13:28:59.921Z,20.49
2018-10-09T13:31:28.481Z,20.58
2018-10-09T13:33:57.230Z,20.44
2018-10-09T13:36:25.780Z,20.51
2018-10-09T13:38:54.416Z,20.54
2018-10-09T13:41:23.082Z,20.47
2018-10-09T13:43:51.703Z,20.43
2018-10-09T13:46:20.257Z,20.30
2018-10-09T13:48:48.880Z,20.42
2018-10-09T13:51:17.451Z,20.54
2018-10-09T13:53:46.136Z,20.53
2018-10-09T13:56:15.085Z,20.60
2018-10-09T13:58:43.812Z,20.61
2018-10-09T14:01:12.433Z,20.63
2018-10-09T14:03:41.225Z,20.40
2018-10-09T14:06:09.843Z,20.65
2018-10-09T14:08:38.396Z,20.60
2018-10-09T14:11:08.213Z,20.61
2018-10-09T14:13:36.997Z,20.71
2018-10-09T14:16:05.702Z,20.70
2018-10-09T14:18:34.605Z,20.82
2018-10-09T14:21:03.193Z,20.77
2018-10-09T14:23:31.765Z,20.60
2018-10-09T14:26:00.489Z,20.56
2018-10-09T14:28:29.120Z,20.56
2018-10-09T14:30:57.736Z,20.63
2018-10-09T14:33:27.002Z,20.61
2018-10-09T14:35:55.633Z,20.59
2018-10-09T14:38:24.217Z,20.73
2018-10-09T14:40:53.113Z,20.89
2018-10-09T14:43:21.688Z,20.87
2018-10-09T14:45:50.329Z,20.79
2018-10-09T14:48:18.929Z,20.79
2018-10-09T14:50:47.677Z,20.78
2018-10-09T14:53:16.305Z,20.74
2018-10-09T14:55:45.127Z,20.68
2018-10-09T14:58:13.816Z,20.78
2018-10-09T15:00:42.480Z,20.75
2018-10-09T15:03:11.413Z,20.77
2018-10-09T15:05:39.972Z,20.80
2018-10-09T15:08:08.573Z,20.92
2018-10-09T15:10:37.184Z,20.91
2018-10-09T15:13:05.984Z,20.71
2018-10-09T15:15:34.559Z,20.66
2018-10-09T15:18:03.161Z,20.57
2018-10-09T15:20:31.713Z,20.62
2018-10-09T15:23:00.261Z,20.62
2018-10-09T15:25:28.962Z,20.66
2018-10-09T15:27:57.520Z,20.74
2018-10-09T15:30:26.105Z,20.71
2018-10-09T15:32:54.736Z,20.63
2018-10-09T15:35:23.350Z,20.55
2018-10-09T15:37:51.900Z,20.52
2018-10-09T15:40:20.500Z,20.52
2018-10-09T15:42:49.193Z,20.40
2018-10-09T15:45:17.728Z,20.47
2018-10-09T15:47:46.346Z,20.40
2018-10-09T15:50:15.032Z,20.35
2018-10-09T15:52:43.644Z,20.29
2018-10-09T15:55:12.512Z,20.24
2018-10-09T15:57:41.120Z,20.17
2018-10-09T16:00:09.812Z,20.17
2018-10-09T16:02:38.689Z,20.10
2018-10-09T16:05:07.269Z,20.01
2018-10-09T16:07:35.876Z,19.98
2018-10-09T16:10:04.832Z,19.95
2018-10-09T16:12:33.449Z,20.00
2018-10-09T16:15:02.011Z,19.97
2018-10-09T16:17:30.925Z,19.83
2018-10-09T16:20:00.362Z,19.74
2018-10-09T16:22:28.972Z,19.46
2018-10-09T16:24:57.712Z,19.26
2018-10-09T16:27:26.397Z,19.11
2018-10-09T16:29:54.961Z,18.97
2018-10-09T16:32:23.776Z,18.91
2018-10-09T16:34:52.341Z,18.77
2018-10-09T16:37:21.125Z,18.66
2018-10-09T16:39:49.942Z,18.86
2018-10-09T16:42:18.623Z,18.47
2018-10-09T16:44:47.248Z,18.17
2018-10-09T16:47:15.941Z,17.87
2018-10-09T16:49:44.493Z,17.75
2018-10-09T16:52:13.070Z,17.66
2018-10-09T16:54:41.827Z,17.53
2018-10-09T16:57:10.513Z,17.37
2018-10-09T16:59:39.101Z,17.22
2018-10-09T17:02:08.209Z,17.07
2018-10-09T17:04:36.864Z,16.79
2018-10-09T17:07:05.529Z,16.81
2018-10-09T17:09:34.289Z,16.59
2018-10-09T17:12:02.880Z,16.51
2018-10-09T17:14:31.577Z,16.35
2018-10-09T17:17:00.241Z,16.27
2018-10-09T17:19:29.050Z,16.08
2018-10-09T17:21:57.665Z,15.96
2018-10-09T17:24:26.295Z,15.81
2018-10-09T17:26:55.033Z,15.74
2018-10-09T17:29:23.537Z,15.53
2018-10-09T17:31:52.140Z,15.45
2018-10-09T17:34:20.748Z,15.41
2018-10-09T17:36:49.441Z,15.35
2018-10-09T17:39:18.228Z,15.18
2018-10-09T17:41:46.840Z,15.12
2018-10-09T17:44:15.429Z,15.04
2018-10-09T17:46:44.315Z,14.86
2018-10-09T17:49:13.403Z,14.90
2018-10-09T17:51:42.008Z,14.89
2018-10-09T17:54:10.788Z,14.74
2018-10-09T17:56:39.448Z,14.59
2018-10-09T17:59:08.026Z,14.54
2018-10-09T18:01:36.752Z,14.58
2018-10-09T18:04:05.281Z,14.64
2018-10-09T18:06:33.809Z,14.46
2018-10-09T18:09:02.389Z,14.40
2018-10-09T18:11:31.006Z,14.31
2018-10-09T18:13:59.564Z,14.16
2018-10-09T18:16:28.349Z,14.08
2018-10-09T18:18:56.942Z,14.02
2018-10-09T18:21:25.584Z,13.90
2018-10-09T18:23:54.469Z,13.90
2018-10-09T18:26:23.156Z,14.09
2018-10-09T18:28:51.825Z,13.89
2018-10-09T18:31:20.436Z,13.91
2018-10-09T18:33:49.057Z,14.27
2018-10-09T18:36:17.664Z,13.92
2018-10-09T18:38:46.628Z,13.98
2018-10-09T18:41:15.276Z,13.78
2018-10-09T18:43:43.893Z,13.84
2018-10-09T18:46:12.621Z,13.72
2018-10-09T18:48:41.180Z,13.71
2018-10-09T18:51:09.769Z,13.70
2018-10-09T18:53:38.476Z,13.44
2018-10-09T18:56:07.041Z,13.47
2018-10-09T18:58:35.726Z,13.36
2018-10-09T19:01:04.569Z,13.25
2018-10-09T19:03:33.166Z,13.16
2018-10-09T19:06:01.745Z,13.00
2018-10-09T19:08:30.344Z,12.97
2018-10-09T19:10:58.933Z,13.00
2018-10-09T19:13:27.492Z,12.90
2018-10-09T19:15:56.210Z,13.00
2018-10-09T19:18:24.857Z,12.76
2018-10-09T19:20:53.424Z,12.78
2018-10-09T19:23:22.184Z,12.69
2018-10-09T19:25:50.761Z,12.90
2018-10-09T19:28:19.325Z,12.82
2018-10-09T19:30:48.031Z,12.70
2018-10-09T19:33:16.720Z,12.65
2018-10-09T19:35:45.252Z,12.65
2018-10-09T19:38:13.846Z,12.65
2018-10-09T19:40:42.404Z,12.51
2018-10-09T19:43:11.022Z,12.50
2018-10-09T19:45:39.951Z,12.41
2018-10-09T19:48:08.502Z,12.28
2018-10-09T19:50:37.235Z,12.26
2018-10-09T19:53:06.157Z,12.25
2018-10-09T19:55:34.733Z,12.25
2018-10-09T19:58:03.305Z,12.13
2018-10-09T20:00:32.280Z,12.12
2018-10-09T20:03:00.814Z,12.26
2018-10-09T20:05:29.408Z,12.14
2018-10-09T20:07:58.045Z,12.07
2018-10-09T20:10:26.622Z,11.86
2018-10-09T20:12:55.187Z,12.02
2018-10-09T20:15:24.127Z,11.83
2018-10-09T20:17:52.708Z,11.78
2018-10-09T20:20:21.497Z,11.78
2018-10-09T20:22:50.256Z,11.70
2018-10-09T20:25:18.873Z,11.57
2018-10-09T20:27:47.543Z,11.65
2018-10-09T20:30:16.316Z,11.61
2018-10-09T20:32:44.843Z,11.46
2018-10-09T20:35:13.401Z,11.40
2018-10-09T20:37:42.340Z,11.42
2018-10-09T20:40:11.108Z,11.51
2018-10-09T20:42:39.734Z,11.37
2018-10-09T20:45:08.716Z,11.47
2018-10-09T20:47:43.190Z,11.40
2018-10-09T20:50:12.375Z,11.22
2018-10-09T20:52:40.979Z,11.21
2018-10-09T20:55:09.584Z,11.04
2018-10-09T20:57:38.872Z,11.14
2018-10-09T21:00:07.561Z,11.07
2018-10-09T21:02:36.129Z,10.94
2018-10-09T21:05:04.841Z,10.93
2018-10-09T21:07:33.537Z,11.13
2018-10-09T21:10:02.145Z,10.88
2018-10-09T21:12:30.973Z,10.83
2018-10-09T21:14:59.524Z,10.83
2018-10-09T21:17:28.297Z,10.81
2018-10-09T21:19:56.857Z,10.64
2018-10-09T21:22:25.464Z,10.52
2018-10-09T21:24:53.988Z,10.71
2018-10-09T21:27:22.749Z,10.67
2018-10-09T21:29:51.420Z,10.79
2018-10-09T21:32:20.026Z,10.71
2018-10-09T21:34:48.740Z,10.57
2018-10-09T21:37:17.396Z,10.55
2018-10-09T21:39:45.968Z,10.53
2018-10-09T21:42:14.650Z,10.41
2018-10-09T21:44:43.214Z,10.37
2018-10-09T21:47:11.869Z,10.39
2018-10-09T21:49:40.713Z,10.37
2018-10-09T21:52:09.296Z,10.32
2018-10-09T21:54:38.104Z,10.32
2018-10-09T21:57:06.836Z,10.27
2018-10-09T21:59:35.380Z,10.31
2018-10-09T22:02:03.940Z,10.24
2018-10-09T22:04:32.741Z,10.31
2018-10-09T22:07:01.355Z,10.48
2018-10-09T22:09:29.920Z,10.44
2018-10-09T22:11:58.484Z,10.36
2018-10-09T22:14:27.048Z,10.43
2018-10-09T22:16:55.568Z,10.52
2018-10-09T22:19:24.408Z,10.59
2018-10-09T22:21:53.057Z,10.51
2018-10-09T22:24:21.701Z,10.57
2018-10-09T22:26:50.253Z,10.57
2018-10-09T22:29:18.856Z,10.53
2018-10-09T22:31:47.474Z,10.42
2018-10-09T22:34:16.177Z,10.33
2018-10-09T22:36:44.745Z,10.35
2018-10-09T22:39:13.328Z,10.34
2018-10-09T22:41:41.890Z,10.14
2018-10-09T22:44:10.474Z,10.01
2018-10-09T22:46:39.268Z,10.01
2018-10-09T22:49:08.005Z,10.00
2018-10-09T22:51:36.536Z,9.81
2018-10-09T22:54:05.125Z,9.69
2018-10-09T22:56:33.861Z,9.80
2018-10-09T22:59:02.469Z,9.74
2018-10-09T23:01:31.185Z,9.66
2018-10-09T23:03:59.816Z,9.58
2018-10-09T23:06:28.433Z,9.73
2018-10-09T23:08:57.000Z,9.63
2018-10-09T23:11:25.728Z,9.66
2018-10-09T23:13:54.312Z,9.63
2018-10-09T23:16:22.873Z,9.66
2018-10-09T23:18:51.573Z,9.71
2018-10-09T23:21:20.164Z,9.70
2018-10-09T23:23:48.854Z,9.57
2018-10-09T23:26:17.527Z,9.50
2018-10-09T23:28:46.061Z,9.53
2018-10-09T23:31:14.668Z,9.45
2018-10-09T23:33:43.360Z,9.41
2018-10-09T23:36:12.009Z,9.35
2018-10-09T23:38:40.572Z,9.23
2018-10-09T23:41:09.501Z,9.14
2018-10-09T23:43:38.043Z,9.13
2018-10-09T23:46:06.809Z,9.22
2018-10-09T23:48:35.472Z,9.19
2018-10-09T23:51:04.001Z,9.13
2018-10-09T23:53:32.541Z,9.05
2018-10-09T23:56:01.306Z,9.07
2018-10-09T23:58:30.132Z,9.06
